Time;durP1;ratioP1;P1;durP2;ratioP2;P2;SDS_P1;SDS_P2;PMS_P1;PMS_P2;Temp;Humidity;BMP_temperature;BMP_pressure;BME280_temperature;BME280_humidity;BME280_pressure;Samples;Min_cycle;Max_cycle;Signal;HPM_P1;HPM_P2
2022/01/05 00:02:02;;;;;;;11.98;8.40;;;;;;;4.44;100.00;97742.44;5083933;28;20040;-80
2022/01/05 00:04:47;;;;;;;11.40;6.80;;;;;;;4.50;100.00;97754.34;5112385;28;20040;-80
2022/01/05 00:07:31;;;;;;;9.73;7.40;;;;;;;4.47;100.00;97751.03;5083729;28;20424;-80
2022/01/05 00:10:16;;;;;;;10.10;7.05;;;;;;;4.42;100.00;97767.59;5112337;28;20425;-80
2022/01/05 00:13:00;;;;;;;11.00;7.15;;;;;;;4.43;100.00;97753.72;5098742;28;20357;-80
2022/01/05 00:15:45;;;;;;;10.75;6.60;;;;;;;4.47;100.00;97763.97;5098525;28;20040;-80
2022/01/05 00:18:31;;;;;;;10.85;5.70;;;;;;;4.37;100.00;97756.50;5098519;28;20097;-80
2022/01/05 00:21:15;;;;;;;10.57;6.65;;;;;;;4.38;100.00;97765.13;5098405;28;20040;-80
2022/01/05 00:24:00;;;;;;;9.65;5.75;;;;;;;4.27;100.00;97725.75;5083379;28;20376;-80
2022/01/05 00:26:44;;;;;;;9.18;5.78;;;;;;;4.44;100.00;97762.34;5098340;28;20105;-80
2022/01/05 00:29:28;;;;;;;7.60;4.80;;;;;;;4.40;100.00;97760.75;5097554;28;20064;-80
2022/01/05 00:32:13;;;;;;;7.15;4.90;;;;;;;4.48;100.00;97774.28;5069218;28;20105;-80
2022/01/05 00:34:58;;;;;;;8.00;5.35;;;;;;;4.50;100.00;97793.25;5083425;28;20036;-81
2022/01/05 00:37:42;;;;;;;8.25;4.82;;;;;;;4.50;100.00;97787.22;5097954;28;20340;-80
2022/01/05 00:40:26;;;;;;;8.98;5.07;;;;;;;4.47;100.00;97785.56;5083177;28;20044;-80
2022/01/05 00:43:10;;;;;;;8.27;4.82;;;;;;;4.51;100.00;97788.91;5111704;28;20044;-80
2022/01/05 00:45:55;;;;;;;8.93;5.05;;;;;;;4.58;100.00;97790.38;5098258;28;20109;-80
2022/01/05 00:48:39;;;;;;;8.48;4.93;;;;;;;4.63;100.00;97784.16;5096962;28;20040;-80
2022/01/05 00:51:24;;;;;;;9.60;6.80;;;;;;;4.68;100.00;97803.03;5114017;28;20067;-80
2022/01/05 00:54:09;;;;;;;7.57;4.93;;;;;;;4.77;100.00;97803.59;5111516;28;20055;-80
2022/01/05 00:56:53;;;;;;;9.50;4.78;;;;;;;4.76;100.00;97805.34;5068650;28;20040;-80
2022/01/05 00:59:38;;;;;;;6.70;3.97;;;;;;;4.78;100.00;97802.72;5097697;28;20184;-80
2022/01/05 01:02:22;;;;;;;5.97;4.07;;;;;;;4.75;100.00;97800.22;5113983;28;20059;-80
2022/01/05 01:05:07;;;;;;;7.60;4.35;;;;;;;4.81;100.00;97800.00;5082736;28;20035;-80
2022/01/05 01:07:51;;;;;;;8.60;4.78;;;;;;;4.87;100.00;97804.97;5097903;28;20047;-80
2022/01/05 01:10:36;;;;;;;5.97;4.18;;;;;;;4.93;100.00;97809.97;5082543;28;20040;-81
2022/01/05 01:13:21;;;;;;;8.68;4.85;;;;;;;4.87;100.00;97795.44;5097480;28;20363;-80
2022/01/05 01:16:05;;;;;;;7.80;4.10;;;;;;;4.95;100.00;97794.38;5068368;28;20048;-81
2022/01/05 01:18:50;;;;;;;9.07;4.25;;;;;;;5.00;100.00;97805.41;5097350;28;20040;-80
2022/01/05 01:21:34;;;;;;;7.05;4.45;;;;;;;4.93;100.00;97789.22;5082365;28;20432;-80
2022/01/05 01:24:18;;;;;;;6.75;4.25;;;;;;;5.02;100.00;97796.69;5110903;28;20048;-80
2022/01/05 01:27:03;;;;;;;6.63;3.90;;;;;;;5.06;100.00;97805.22;5082462;28;20043;-81
2022/01/05 01:29:47;;;;;;;7.97;4.60;;;;;;;5.10;100.00;97809.38;5082072;28;20349;-81
2022/01/05 01:32:31;;;;;;;7.57;4.53;;;;;;;5.20;100.00;97822.88;5110698;28;20109;-80
2022/01/05 01:35:16;;;;;;;6.68;4.40;;;;;;;5.16;100.00;97819.56;5082165;28;20043;-81
2022/01/05 01:38:01;;;;;;;7.35;4.30;;;;;;;5.02;100.00;97801.88;5096208;28;20439;-81
2022/01/05 01:40:45;;;;;;;9.20;4.10;;;;;;;5.18;100.00;97815.16;5096826;28;20036;-80
2022/01/05 01:43:30;;;;;;;7.07;4.35;;;;;;;5.22;100.00;97821.94;5081847;28;20349;-80
2022/01/05 01:46:14;;;;;;;5.38;3.95;;;;;;;5.21;100.00;97828.03;5096850;28;20063;-80
2022/01/05 01:48:59;;;;;;;8.90;4.63;;;;;;;5.24;100.00;97821.91;5110436;28;20047;-80
2022/01/05 01:51:43;;;;;;;7.35;3.78;;;;;;;5.24;100.00;97829.69;5096586;28;20048;-80
2022/01/05 01:54:28;;;;;;;7.80;4.32;;;;;;;5.18;100.00;97838.53;5096708;28;20040;-81
2022/01/05 01:57:13;;;;;;;8.13;5.35;;;;;;;5.12;100.00;97836.97;5096577;28;20040;-80
2022/01/05 01:59:58;;;;;;;7.68;4.25;;;;;;;5.05;100.00;97832.91;5081502;28;20051;-80
2022/01/05 02:02:44;;;;;;;6.80;4.63;;;;;;;5.10;100.00;97831.03;5067404;28;20410;-81
2022/01/05 02:05:29;;;;;;;6.63;3.88;;;;;;;5.04;100.00;97825.19;5096537;28;20044;-80
2022/01/05 02:08:13;;;;;;;6.05;3.90;;;;;;;5.06;100.00;97831.16;5095925;28;20071;-81
2022/01/05 02:10:58;;;;;;;6.50;4.25;;;;;;;5.10;100.00;97835.34;5096472;28;20412;-81
2022/01/05 02:13:42;;;;;;;7.13;4.53;;;;;;;5.10;100.00;97820.63;5096328;28;20115;-80
2022/01/05 02:16:31;;;;;;;7.93;5.70;;;;;;;5.13;100.00;97823.13;5081405;28;20036;-80
2022/01/05 02:19:15;;;;;;;7.72;4.68;;;;;;;5.15;100.00;97833.44;5081388;28;20052;-81
2022/01/05 02:21:59;;;;;;;9.02;4.97;;;;;;;5.22;100.00;97821.94;5096431;28;20051;-81
2022/01/05 02:24:47;;;;;;;10.73;4.43;;;;;;;5.22;100.00;97810.72;5095499;28;20032;-80
2022/01/05 02:27:32;;;;;;;7.72;4.10;;;;;;;5.27;100.00;97804.47;5096234;28;20134;-81
2022/01/05 02:30:42;;;;;;;6.55;4.40;;;;;;;5.25;100.00;97790.69;5081172;28;20032;-81
2022/01/05 02:33:27;;;;;;;6.90;4.20;;;;;;;5.34;100.00;97790.38;5081210;28;20482;-81
2022/01/05 02:36:15;;;;;;;7.40;4.30;;;;;;;5.38;100.00;97801.47;5096087;28;20051;-81
2022/01/05 02:39:00;;;;;;;8.70;5.47;;;;;;;5.36;100.00;97808.47;5109721;28;20062;-81
2022/01/05 02:41:44;;;;;;;7.53;5.70;;;;;;;5.41;100.00;97809.16;5066926;28;20036;-81
2022/01/05 02:44:28;;;;;;;6.68;4.70;;;;;;;5.46;100.00;97828.03;5096002;28;20090;-81
2022/01/05 02:47:12;;;;;;;7.78;4.68;;;;;;;5.34;100.00;97825.88;5095471;28;20047;-81
2022/01/05 02:49:57;;;;;;;7.65;4.25;;;;;;;5.45;100.00;97830.66;5081258;28;20040;-81
2022/01/05 02:52:43;;;;;;;7.05;4.25;;;;;;;5.48;100.00;97828.81;5094931;28;20056;-81
2022/01/05 02:55:27;;;;;;;7.20;4.07;;;;;;;5.41;100.00;97818.72;5081058;28;20043;-81
2022/01/05 02:58:11;;;;;;;7.45;4.20;;;;;;;5.43;100.00;97806.50;5109559;28;20044;-81
2022/01/05 03:00:56;;;;;;;9.20;4.70;;;;;;;5.47;100.00;97806.34;5095909;28;20040;-81
2022/01/05 03:03:41;;;;;;;9.55;5.18;;;;;;;5.44;100.00;97803.88;5095850;28;20040;-82
2022/01/05 03:06:25;;;;;;;8.57;4.50;;;;;;;5.48;100.00;97809.78;5095918;28;20452;-81
2022/01/05 03:09:09;;;;;;;8.38;4.72;;;;;;;5.56;100.00;97808.63;5080800;28;20057;-82
2022/01/05 03:11:53;;;;;;;8.15;4.88;;;;;;;5.57;100.00;97805.09;5067827;28;20040;-82
2022/01/05 03:14:38;;;;;;;8.57;4.45;;;;;;;5.65;100.00;97801.38;5084688;28;20394;-81
2022/01/05 03:17:22;;;;;;;8.68;4.70;;;;;;;5.67;100.00;97803.03;5084635;28;20356;-81
2022/01/05 03:20:07;;;;;;;6.47;4.32;;;;;;;5.61;100.00;97787.66;5084640;28;20069;-81
2022/01/05 03:22:51;;;;;;;8.60;5.45;;;;;;;5.60;100.00;97791.16;5084594;28;20428;-81
2022/01/05 03:25:36;;;;;;;9.30;5.10;;;;;;;5.46;100.00;97794.28;5084506;28;20040;-81
2022/01/05 03:28:20;;;;;;;10.43;5.82;;;;;;;5.55;100.00;97803.47;5099636;28;20051;-81
2022/01/05 03:31:05;;;;;;;8.52;4.78;;;;;;;5.62;100.00;97808.41;5099350;28;20433;-81
2022/01/05 03:33:49;;;;;;;5.85;3.78;;;;;;;5.61;100.00;97819.66;5113051;28;20044;-81
2022/01/05 03:36:34;;;;;;;8.82;4.70;;;;;;;5.68;100.00;97819.44;5084376;28;20036;-81
2022/01/05 03:39:18;;;;;;;6.30;4.18;;;;;;;5.72;100.00;97814.09;5098593;28;20044;-82
2022/01/05 03:42:03;;;;;;;6.35;4.25;;;;;;;5.68;100.00;97801.25;5099293;28;20044;-81
2022/01/05 03:44:48;;;;;;;7.25;4.43;;;;;;;5.71;100.00;97817.56;5099066;28;20048;-81
2022/01/05 03:47:32;;;;;;;6.20;3.33;;;;;;;5.74;100.00;97808.84;5099264;28;20076;-81
2022/01/05 03:50:17;;;;;;;8.68;4.35;;;;;;;5.77;100.00;97814.75;5112715;28;20044;-81
2022/01/05 03:53:03;;;;;;;7.05;3.55;;;;;;;5.75;100.00;97807.91;5098887;28;20059;-81
2022/01/05 03:55:48;;;;;;;6.93;4.75;;;;;;;5.73;100.00;97818.38;5083935;28;20330;-81
2022/01/05 03:58:32;;;;;;;9.55;5.40;;;;;;;5.73;100.00;97813.19;5083908;28;20444;-81
2022/01/05 04:01:16;;;;;;;8.68;5.00;;;;;;;5.70;100.00;97810.69;5098967;28;20097;-82
2022/01/05 04:04:01;;;;;;;9.88;5.63;;;;;;;5.75;100.00;97826.97;5069811;28;20550;-82
2022/01/05 04:06:45;;;;;;;10.02;5.07;;;;;;;5.67;100.00;97822.97;5083801;28;20051;-82
2022/01/05 04:09:30;;;;;;;7.53;5.10;;;;;;;5.81;100.00;97839.72;5098113;28;20079;-81
2022/01/05 04:12:14;;;;;;;8.48;5.57;;;;;;;5.74;100.00;97819.22;5098655;28;20037;-82
2022/01/05 04:14:59;;;;;;;8.05;4.70;;;;;;;5.81;100.00;97825.88;5083749;28;20044;-82
2022/01/05 04:17:44;;;;;;;7.90;4.50;;;;;;;5.89;100.00;97817.81;5098475;28;20101;-82
2022/01/05 04:20:29;;;;;;;9.63;5.25;;;;;;;5.85;100.00;97786.75;5098529;28;20119;-82
2022/01/05 04:23:13;;;;;;;11.07;6.38;;;;;;;5.74;100.00;97780.25;5098462;28;20051;-81
2022/01/05 04:25:58;;;;;;;8.52;5.47;;;;;;;5.84;100.00;97800.63;5097859;28;20123;-82
2022/01/05 04:28:42;;;;;;;12.43;5.68;;;;;;;5.83;100.00;97787.72;5080767;28;20060;-82
2022/01/05 04:31:26;;;;;;;8.63;5.25;;;;;;;5.81;100.00;97802.50;5098384;28;20044;-82
2022/01/05 04:34:12;;;;;;;9.57;5.47;;;;;;;5.72;100.00;97797.66;5098221;28;20040;-81
2022/01/05 04:36:56;;;;;;;6.78;4.60;;;;;;;5.65;100.00;97789.22;5083289;28;20032;-82
2022/01/05 04:39:40;;;;;;;6.60;4.28;;;;;;;5.74;100.00;97806.22;5098218;28;20436;-81
2022/01/05 04:42:26;;;;;;;7.70;6.15;;;;;;;5.81;100.00;97812.88;5083247;28;20456;-82
2022/01/05 04:45:11;;;;;;;9.05;4.82;;;;;;;5.81;100.00;97810.28;5069012;28;20502;-83
2022/01/05 04:47:55;;;;;;;9.52;5.72;;;;;;;5.79;100.00;97799.13;5083146;28;20043;-83
2022/01/05 04:50:39;;;;;;;9.25;5.35;;;;;;;5.75;100.00;97806.19;5082998;28;20040;-83
2022/01/05 04:53:23;;;;;;;8.85;6.35;;;;;;;5.75;100.00;97807.91;5082966;28;20040;-83
2022/01/05 04:56:08;;;;;;;9.25;6.53;;;;;;;5.73;100.00;97802.78;5082930;28;20047;-83
2022/01/05 04:58:52;;;;;;;12.88;6.85;;;;;;;5.65;100.00;97806.56;5068901;28;20071;-82
2022/01/05 05:01:36;;;;;;;10.98;6.43;;;;;;;5.73;100.00;97808.00;5082750;28;20040;-83
2022/01/05 05:04:21;;;;;;;8.25;6.20;;;;;;;5.79;100.00;97818.16;5097738;28;20044;-83
2022/01/05 05:07:06;;;;;;;17.40;10.00;;;;;;;5.63;100.00;97802.28;5082634;28;20394;-83
2022/01/05 05:09:50;;;;;;;12.73;8.20;;;;;;;5.80;100.00;97803.41;5111234;28;20036;-82
2022/01/05 05:12:34;;;;;;;17.70;9.52;;;;;;;5.83;100.00;97801.53;5097567;28;20040;-82
2022/01/05 05:15:18;;;;;;;15.93;9.90;;;;;;;5.83;100.00;97793.75;5082443;28;20131;-83
2022/01/05 05:18:04;;;;;;;16.10;8.43;;;;;;;5.87;100.00;97804.88;5082435;28;20066;-83
2022/01/05 05:20:48;;;;;;;13.88;8.00;;;;;;;5.85;100.00;97812.75;5082279;28;20040;-83
2022/01/05 05:23:33;;;;;;;11.00;7.53;;;;;;;5.80;100.00;97814.66;5082178;28;20101;-83
2022/01/05 05:26:17;;;;;;;10.75;7.03;;;;;;;5.84;100.00;97797.19;5068177;28;20413;-83
2022/01/05 05:29:02;;;;;;;8.85;6.10;;;;;;;5.93;100.00;97814.22;5096424;28;20055;-83
2022/01/05 05:31:46;;;;;;;9.13;6.13;;;;;;;5.97;100.00;97827.03;5082092;28;20036;-83
2022/01/05 05:34:31;;;;;;;10.90;6.70;;;;;;;5.86;100.00;97801.44;5096545;28;20040;-82
2022/01/05 05:37:16;;;;;;;14.50;9.00;;;;;;;5.84;100.00;97807.59;5082092;28;20040;-82
2022/01/05 05:40:01;;;;;;;14.13;8.85;;;;;;;5.84;100.00;97800.63;5096405;28;20040;-82
2022/01/05 05:42:45;;;;;;;13.02;7.75;;;;;;;5.92;100.00;97805.56;5081974;28;20437;-82
2022/01/05 05:45:30;;;;;;;13.77;8.02;;;;;;;5.92;100.00;97812.50;5096910;28;20044;-83
2022/01/05 05:48:15;;;;;;;12.82;8.80;;;;;;;5.88;100.00;97813.50;5081928;28;20451;-83
2022/01/05 05:50:59;;;;;;;19.38;9.35;;;;;;;5.89;100.00;97816.06;5098456;28;20109;-83
2022/01/05 05:53:43;;;;;;;14.63;9.77;;;;;;;5.96;100.00;97816.72;5067557;28;20090;-83
2022/01/05 05:56:27;;;;;;;14.80;9.00;;;;;;;5.91;100.00;97822.03;5081519;28;20063;-83
2022/01/05 05:59:12;;;;;;;14.30;8.90;;;;;;;5.97;100.00;97829.63;5067485;28;20044;-83
2022/01/05 06:01:56;;;;;;;12.93;8.63;;;;;;;5.99;100.00;97842.59;5067734;28;20040;-82
2022/01/05 06:04:40;;;;;;;17.42;11.88;;;;;;;5.88;100.00;97822.16;5067441;28;20440;-83
2022/01/05 06:07:24;;;;;;;22.60;12.18;;;;;;;5.90;100.00;97825.53;5096577;28;20489;-82
2022/01/05 06:10:09;;;;;;;17.80;10.85;;;;;;;5.81;100.00;97792.09;5112498;28;20372;-83
2022/01/05 06:12:53;;;;;;;19.25;10.73;;;;;;;5.85;100.00;97799.75;5110072;28;20391;-83
2022/01/05 06:15:38;;;;;;;17.23;10.10;;;;;;;5.87;100.00;97802.28;5095694;28;20111;-83
2022/01/05 06:18:22;;;;;;;15.15;8.93;;;;;;;5.90;100.00;97809.94;5081485;28;20040;-83
2022/01/05 06:21:06;;;;;;;14.30;8.65;;;;;;;5.85;100.00;97811.91;5067259;28;20425;-83
2022/01/05 06:23:50;;;;;;;20.70;12.30;;;;;;;5.73;100.00;97801.94;5096237;28;20045;-83
2022/01/05 06:26:34;;;;;;;20.70;12.77;;;;;;;5.74;100.00;97801.88;5096287;28;20040;-83
2022/01/05 06:29:20;;;;;;;32.80;14.45;;;;;;;5.71;100.00;97809.78;5064575;28;20083;-83
2022/01/05 06:32:05;;;;;;;32.70;15.35;;;;;;;5.61;100.00;97790.25;5081374;28;20497;-83
2022/01/05 06:34:49;;;;;;;31.17;15.18;;;;;;;5.72;100.00;97808.03;5112283;28;20051;-83
2022/01/05 06:37:33;;;;;;;37.63;18.25;;;;;;;5.74;100.00;97814.88;5081048;28;20040;-83
2022/01/05 06:40:18;;;;;;;35.40;18.92;;;;;;;5.63;100.00;97817.88;5096045;28;20047;-83
2022/01/05 06:43:02;;;;;;;29.05;18.02;;;;;;;5.57;100.00;97802.50;5081069;28;20044;-83
2022/01/05 06:45:47;;;;;;;31.00;17.75;;;;;;;5.60;100.00;97812.78;5081144;28;20062;-83
2022/01/05 06:48:31;;;;;;;55.40;22.52;;;;;;;5.63;100.00;97823.06;5085219;28;20349;-82
2022/01/05 06:51:15;;;;;;;52.10;21.65;;;;;;;5.55;100.00;97817.28;5116325;28;20440;-83
2022/01/05 06:54:00;;;;;;;36.72;20.55;;;;;;;5.58;100.00;97817.19;5116494;28;20131;-83
2022/01/05 06:56:46;;;;;;;59.50;24.67;;;;;;;5.53;100.00;97820.88;5084999;28;20429;-83
2022/01/05 06:59:31;;;;;;;74.70;31.80;;;;;;;5.58;100.00;97818.94;5100113;28;20036;-83
2022/01/05 07:02:15;;;;;;;69.32;28.25;;;;;;;5.63;100.00;97824.81;5099988;28;20044;-83
2022/01/05 07:04:59;;;;;;;78.60;31.95;;;;;;;5.59;100.00;97818.06;5085109;28;20093;-83
2022/01/05 07:07:44;;;;;;;95.00;40.67;;;;;;;5.62;100.00;97823.97;5070526;28;20093;-80
2022/01/05 07:10:28;;;;;;;74.63;31.45;;;;;;;5.63;100.00;97820.47;5099112;28;20044;-80
2022/01/05 07:13:13;;;;;;;48.35;21.83;;;;;;;5.58;100.00;97809.38;5068445;28;20044;-78
2022/01/05 07:15:57;;;;;;;21.38;12.05;;;;;;;5.60;100.00;97822.34;5082443;28;20040;-80
2022/01/05 07:18:41;;;;;;;21.60;11.88;;;;;;;5.55;100.00;97822.47;5082288;28;20437;-79
2022/01/05 07:21:26;;;;;;;15.15;8.90;;;;;;;5.63;100.00;97814.44;5068870;28;20039;-79
2022/01/05 07:24:13;;;;;;;21.77;10.25;;;;;;;5.55;100.00;97800.88;5085176;28;20044;-80
2022/01/05 07:26:57;;;;;;;26.17;13.68;;;;;;;5.59;100.00;97805.06;5111893;28;20044;-79
2022/01/05 07:29:42;;;;;;;21.05;12.10;;;;;;;5.73;100.00;97822.75;5097010;28;20044;-79
2022/01/05 07:32:28;;;;;;;11.00;7.95;;;;;;;5.70;100.00;97815.06;5068737;28;20048;-80
2022/01/05 07:35:13;;;;;;;10.70;8.55;;;;;;;5.74;100.00;97814.88;5097816;28;20044;-79
2022/01/05 07:37:57;;;;;;;13.23;8.85;;;;;;;5.72;100.00;97808.91;5083452;28;20036;-79
2022/01/05 07:40:42;;;;;;;20.60;10.32;;;;;;;5.68;100.00;97815.09;5083599;28;20048;-80
2022/01/05 07:43:27;;;;;;;18.98;11.23;;;;;;;5.77;100.00;97816.50;5084426;28;20056;-80
2022/01/05 07:46:12;;;;;;;20.25;11.38;;;;;;;5.74;100.00;97814.88;5099922;28;20044;-80
2022/01/05 07:48:56;;;;;;;16.20;12.00;;;;;;;5.68;100.00;97817.69;5084444;28;20436;-80
2022/01/05 07:51:40;;;;;;;17.20;13.82;;;;;;;5.77;100.00;97813.91;5099003;28;20056;-80
2022/01/05 07:54:25;;;;;;;33.72;25.45;;;;;;;5.83;100.00;97816.28;5084203;28;20044;-80
2022/01/05 07:57:10;;;;;;;25.50;18.70;;;;;;;5.77;100.00;97804.38;5098469;28;20043;-81
2022/01/05 07:59:54;;;;;;;12.93;10.10;;;;;;;5.71;100.00;97799.41;5083881;28;20044;-80
2022/01/05 08:02:39;;;;;;;69.03;32.45;;;;;;;5.74;100.00;97817.47;5069552;28;20121;-80
2022/01/05 08:05:23;;;;;;;107.15;47.85;;;;;;;5.70;100.00;97802.06;5097679;28;20133;-80
2022/01/05 08:08:08;;;;;;;69.97;32.35;;;;;;;5.70;100.00;97794.28;5082124;28;20044;-80
2022/01/05 08:10:52;;;;;;;85.68;37.08;;;;;;;5.81;100.00;97811.13;5097589;28;20040;-80
2022/01/05 08:13:37;;;;;;;74.53;32.33;;;;;;;5.82;100.00;97817.22;5082614;28;20046;-81
2022/01/05 08:16:22;;;;;;;85.72;38.40;;;;;;;5.68;100.00;97803.88;5082113;28;20048;-81
2022/01/05 08:19:06;;;;;;;62.40;27.73;;;;;;;5.82;100.00;97820.66;5096880;28;20440;-81
2022/01/05 08:21:50;;;;;;;93.80;41.50;;;;;;;5.76;100.00;97815.66;5110192;28;20139;-81
2022/01/05 08:24:35;;;;;;;61.38;29.48;;;;;;;5.87;100.00;97823.06;5096373;28;20313;-81
2022/01/05 08:27:20;;;;;;;56.03;26.98;;;;;;;5.73;100.00;97815.78;5096644;28;20040;-80
2022/01/05 08:30:06;;;;;;;38.28;20.15;;;;;;;5.85;100.00;97824.88;5096623;28;20040;-81
2022/01/05 08:32:52;;;;;;;20.02;12.00;;;;;;;5.84;100.00;97821.41;5096617;28;20036;-80
2022/01/05 08:35:37;;;;;;;19.52;12.02;;;;;;;5.88;100.00;97824.75;5069668;28;20047;-80
2022/01/05 08:38:21;;;;;;;15.48;9.85;;;;;;;5.95;100.00;97822.81;5098845;28;20434;-80
2022/01/05 08:41:06;;;;;;;13.30;9.25;;;;;;;5.94;100.00;97826.31;5098858;28;20044;-80
2022/01/05 08:43:51;;;;;;;12.38;8.88;;;;;;;5.86;100.00;97839.56;5098357;28;20055;-81
2022/01/05 08:46:35;;;;;;;16.45;10.10;;;;;;;5.85;100.00;97843.06;5112005;28;20036;-81
2022/01/05 08:49:19;;;;;;;11.48;8.40;;;;;;;5.85;100.00;97843.06;5112402;28;20044;-80
2022/01/05 08:52:04;;;;;;;15.70;9.63;;;;;;;5.89;100.00;97843.81;5082990;28;20059;-81
2022/01/05 08:54:49;;;;;;;15.48;9.45;;;;;;;5.92;100.00;97848.88;5097987;28;20044;-81
2022/01/05 08:57:33;;;;;;;16.00;10.30;;;;;;;5.94;100.00;97853.13;5083202;28;20043;-81
2022/01/05 09:00:18;;;;;;;17.10;11.27;;;;;;;5.95;100.00;97841.84;5082902;28;20040;-80
2022/01/05 09:03:04;;;;;;;11.77;8.95;;;;;;;6.01;100.00;97836.44;5068742;28;20044;-81
2022/01/05 09:05:48;;;;;;;12.45;8.95;;;;;;;6.03;100.00;97839.78;5082901;28;20344;-81
2022/01/05 09:08:34;;;;;;;11.95;8.07;;;;;;;6.09;100.00;97836.97;5097959;28;20035;-80
2022/01/05 09:11:19;;;;;;;12.60;9.32;;;;;;;6.06;100.00;97823.25;5082869;28;20040;-80
2022/01/05 09:14:04;;;;;;;12.07;9.05;;;;;;;6.05;100.00;97829.34;5098142;28;20432;-81
2022/01/05 09:16:48;;;;;;;21.30;12.95;;;;;;;6.06;100.00;97839.69;5083046;28;20036;-80
2022/01/05 09:19:33;;;;;;;16.83;10.00;;;;;;;6.11;100.00;97838.66;5082566;28;20043;-80
2022/01/05 09:22:21;;;;;;;11.95;8.23;;;;;;;6.08;100.00;97818.84;5068591;28;20056;-80
2022/01/05 09:25:07;;;;;;;11.23;8.35;;;;;;;6.26;100.00;97833.72;5097576;28;20032;-80
2022/01/05 09:27:52;;;;;;;12.15;7.60;;;;;;;6.26;100.00;97835.47;5097382;28;20047;-81
2022/01/05 09:30:36;;;;;;;11.70;8.48;;;;;;;6.29;100.00;97835.34;5097642;28;20036;-80
2022/01/05 09:33:22;;;;;;;12.02;8.43;;;;;;;6.39;100.00;97841.88;5068343;28;20044;-81
2022/01/05 09:36:16;;;;;;;12.43;7.10;;;;;;;6.27;100.00;97839.75;5082683;28;20043;-80
2022/01/05 09:42:06;;;;;;;;;;;;;;;6.35;100.00;97819.53;5097530;28;20348;-80
2022/01/05 09:44:52;;;;;;;12.43;6.80;;;;;;;6.37;100.00;97822.91;5082523;28;19928;-81
2022/01/05 09:48:38;;;;;;;11.90;7.55;;;;;;;6.40;100.00;97845.31;5051207;28;20052;-81
2022/01/05 09:51:29;;;;;;;14.40;7.95;;;;;;;6.43;100.00;97820.03;5078805;28;20436;-81
2022/01/05 09:54:14;;;;;;;13.88;7.90;;;;;;;6.48;100.00;97825.09;5067783;28;20097;-81
2022/01/05 09:56:59;;;;;;;12.85;7.90;;;;;;;6.51;100.00;97819.75;5081912;28;20109;-81
2022/01/05 09:59:45;;;;;;;14.98;8.45;;;;;;;6.40;100.00;97793.31;5082213;28;20036;-81
2022/01/05 10:02:30;;;;;;;13.02;8.13;;;;;;;6.43;100.00;97814.84;5068000;28;20052;-81
2022/01/05 10:05:18;;;;;;;16.92;8.82;;;;;;;6.41;100.00;97821.88;5096734;28;20123;-82
2022/01/05 10:08:02;;;;;;;15.82;8.98;;;;;;;6.42;100.00;97823.56;5081612;28;20047;-81
2022/01/05 10:10:47;;;;;;;11.40;7.13;;;;;;;6.60;100.00;97822.00;5096530;28;20036;-81
2022/01/05 10:13:31;;;;;;;14.63;8.60;;;;;;;6.57;100.00;97831.69;5096446;28;20173;-81
2022/01/05 10:16:16;;;;;;;13.95;9.23;;;;;;;6.63;100.00;97837.47;5110245;28;20040;-80
2022/01/05 10:19:01;;;;;;;10.48;9.25;;;;;;;6.62;100.00;97853.13;5096976;28;20236;-81
2022/01/05 10:21:45;;;;;;;13.93;9.57;;;;;;;6.58;100.00;97843.78;5067333;28;20059;-81
2022/01/05 10:24:41;;;;;;;10.15;6.32;;;;;;;6.57;100.00;97836.88;5081921;28;20413;-81
2022/01/05 10:27:27;;;;;;;8.93;5.47;;;;;;;6.52;100.00;97827.47;5096282;28;20098;-81
2022/01/05 10:30:14;;;;;;;10.60;6.68;;;;;;;6.57;100.00;97827.31;5096833;28;20062;-81
2022/01/05 10:32:58;;;;;;;10.90;7.03;;;;;;;6.51;100.00;97841.41;5081823;28;20040;-81
2022/01/05 10:35:55;;;;;;;17.25;7.85;;;;;;;6.52;100.00;97847.44;5096591;28;20074;-80
2022/01/05 10:38:59;;;;;;;11.65;6.78;;;;;;;6.50;100.00;97844.94;5081158;28;20044;-80
2022/01/05 10:41:45;;;;;;;;;;;;;;;6.46;100.00;97832.94;5097004;28;20040;-80
2022/01/05 10:44:30;;;;;;;17.33;12.18;;;;;;;6.42;100.00;97838.31;5081792;28;19920;-80
2022/01/05 10:47:15;;;;;;;13.48;8.18;;;;;;;6.49;100.00;97839.78;5063306;28;20211;-80
2022/01/05 10:50:00;;;;;;;10.32;6.00;;;;;;;6.51;100.00;97831.00;5095981;28;20044;-81
2022/01/05 10:52:56;;;;;;;8.90;6.07;;;;;;;6.53;100.00;97838.72;5095219;28;20052;-81
2022/01/05 10:55:45;;;;;;;10.75;7.63;;;;;;;6.59;100.00;97856.69;5094087;28;20142;-81
2022/01/05 10:58:42;;;;;;;13.02;7.78;;;;;;;6.52;100.00;97855.25;5079170;28;20354;-82
2022/01/05 11:01:28;;;;;;;30.98;14.75;;;;;;;6.45;100.00;97869.41;5094121;28;20098;-81
2022/01/05 11:04:18;;;;;;;36.97;18.83;;;;;;;6.49;100.00;97858.81;5065024;28;20040;-81
2022/01/05 11:07:03;;;;;;;33.22;15.93;;;;;;;6.21;100.00;97821.81;5079119;28;20058;-81
2022/01/05 11:10:05;;;;;;;26.35;13.88;;;;;;;6.36;100.00;97849.81;5079123;28;20078;-82
2022/01/05 11:12:52;;;;;;;21.80;11.85;;;;;;;6.37;100.00;97846.31;5079153;28;20094;-82
2022/01/05 11:15:36;;;;;;;17.60;10.82;;;;;;;6.38;100.00;97832.41;5048724;28;20071;-81
2022/01/05 11:18:21;;;;;;;13.15;7.70;;;;;;;6.49;100.00;97839.78;5079415;28;20048;-81
2022/01/05 11:21:06;;;;;;;12.00;6.57;;;;;;;6.34;100.00;97843.84;5079445;28;20395;-81
2022/01/05 11:23:51;;;;;;;13.80;7.85;;;;;;;6.39;100.00;97846.25;5048651;28;20062;-80
2022/01/05 11:26:37;;;;;;;12.98;7.10;;;;;;;6.27;100.00;97839.75;5065785;28;20036;-83
2022/01/05 11:29:23;;;;;;;15.02;9.02;;;;;;;6.22;100.00;97870.31;5066271;28;20119;-80
2022/01/05 11:32:10;;;;;;;9.25;4.82;;;;;;;5.94;100.00;97881.72;5078920;28;20123;-80
2022/01/05 11:34:55;;;;;;;2.90;1.63;;;;;;;5.32;100.00;97908.13;5082632;28;20127;-79
2022/01/05 11:37:40;;;;;;;3.05;1.52;;;;;;;5.04;100.00;97897.84;5068492;28;20447;-79
2022/01/05 11:40:25;;;;;;;5.10;2.08;;;;;;;4.67;100.00;97884.28;5111265;28;20040;-80
2022/01/05 11:43:15;;;;;;;4.20;1.85;;;;;;;4.66;100.00;97902.50;5082674;28;20047;-81
2022/01/05 11:46:14;;;;;;;3.03;2.00;;;;;;;4.38;100.00;97908.53;5097451;28;20040;-81
2022/01/05 11:49:02;;;;;;;2.92;1.88;;;;;;;4.43;100.00;97927.41;5110889;28;20051;-79
2022/01/05 11:51:50;;;;;;;4.20;2.25;;;;;;;4.25;100.00;97935.72;5082132;28;20055;-80
2022/01/05 11:54:34;;;;;;;31.55;22.58;;;;;;;4.10;100.00;97946.53;5097563;28;20036;-81
2022/01/05 11:57:19;;;;;;;29.10;15.88;;;;;;;4.02;100.00;97945.91;5097901;28;20044;-81
2022/01/05 12:00:18;;;;;;;49.35;15.07;;;;;;;3.85;100.00;97928.25;5083790;28;20141;-82
2022/01/05 12:03:02;;;;;;;8.73;4.05;;;;;;;3.89;100.00;97961.78;5113198;28;20048;-82
2022/01/05 12:06:06;;;;;;;8.98;4.75;;;;;;;3.97;100.00;97969.34;5069862;28;20044;-81
2022/01/05 12:08:54;;;;;;;8.35;6.10;;;;;;;3.64;100.00;97942.59;5083835;28;20050;-81
2022/01/05 12:11:42;;;;;;;19.45;6.68;;;;;;;3.57;100.00;97962.63;5070083;28;20044;-81
2022/01/05 12:14:26;;;;;;;11.60;5.05;;;;;;;3.71;100.00;97947.59;5084183;28;20032;-81
2022/01/05 12:17:12;;;;;;;6.28;2.78;;;;;;;3.65;100.00;97959.84;5099214;28;20078;-80
2022/01/05 12:19:57;;;;;;;21.88;8.18;;;;;;;3.56;100.00;97965.28;5083763;28;20340;-81
2022/01/05 12:22:42;;;;;;;8.50;3.83;;;;;;;3.54;100.00;97949.75;5084152;28;20048;-81
2022/01/05 12:25:27;;;;;;;17.35;6.90;;;;;;;3.61;100.00;97946.16;5070031;28;20420;-81
2022/01/05 12:28:28;;;;;;;21.88;8.80;;;;;;;3.70;100.00;97968.34;5084283;28;20043;-81
2022/01/05 12:31:14;;;;;;;11.57;5.22;;;;;;;3.55;100.00;97956.66;5052649;28;20063;-80
2022/01/05 12:33:58;;;;;;;7.38;4.85;;;;;;;3.68;100.00;97975.31;5098349;28;20478;-80
2022/01/05 12:36:43;;;;;;;16.40;8.77;;;;;;;3.72;100.00;97972.59;5098729;28;20040;-81
2022/01/05 12:39:49;;;;;;;16.00;7.30;;;;;;;3.70;100.00;97982.13;5098294;28;20044;-80
2022/01/05 12:42:33;;;;;;;9.27;5.70;;;;;;;3.62;100.00;97988.41;5083133;28;20394;-81
2022/01/05 12:45:56;;;;;;;13.32;4.68;;;;;;;3.71;100.00;98006.31;5097348;28;20401;-80
2022/01/05 12:48:54;;;;;;;10.02;5.13;;;;;;;3.77;100.00;98011.34;5066098;28;20055;-79
2022/01/05 12:51:44;;;;;;;29.80;13.90;;;;;;;3.85;100.00;98013.72;5097864;28;20063;-80
2022/01/05 12:54:39;;;;;;;95.40;46.00;;;;;;;3.82;100.00;97996.50;5067331;28;20040;-79
2022/01/05 12:57:25;;;;;;;11.38;7.70;;;;;;;3.74;100.00;97995.88;5080874;28;20040;-80